Time;durP1;ratioP1;P1;durP2;ratioP2;P2;SDS_P1;SDS_P2;PMS_P1;PMS_P2;Temp;Humidity;BMP_temperature;BMP_pressure;BME280_temperature;BME280_humidity;BME280_pressure;Samples;Min_cycle;Max_cycle;Signal;HPM_P1;HPM_P2
2023/01/25 00:02:07;;;;;;;21.30;15.00;;;5.80;99.90;;;;;;5047256;28;20037;-48
2023/01/25 00:04:33;;;;;;;22.35;14.25;;;5.60;99.90;;;;;;5035775;28;20186;-47
2023/01/25 00:06:59;;;;;;;17.77;13.35;;;5.60;99.90;;;;;;5033781;28;20067;-48
2023/01/25 00:09:25;;;;;;;22.38;13.73;;;5.50;99.90;;;;;;5050541;28;20370;-48
2023/01/25 00:11:52;;;;;;;18.05;12.27;;;5.50;99.90;;;;;;5036145;28;20025;-47
2023/01/25 00:14:17;;;;;;;19.48;13.40;;;5.40;99.90;;;;;;5035508;28;20476;-47
2023/01/25 00:16:43;;;;;;;21.75;14.77;;;5.50;99.90;;;;;;5050369;28;20042;-47
2023/01/25 00:19:10;;;;;;;21.65;15.63;;;5.50;99.90;;;;;;5035610;28;20026;-47
2023/01/25 00:21:36;;;;;;;25.35;16.60;;;5.70;99.90;;;;;;5033573;28;20461;-47
2023/01/25 00:24:02;;;;;;;25.48;17.65;;;5.50;99.90;;;;;;5016191;28;20136;-47
2023/01/25 00:26:33;;;;;;;25.02;17.92;;;5.50;99.90;;;;;;5035665;28;20057;-48
2023/01/25 00:28:59;;;;;;;26.85;17.95;;;5.50;99.90;;;;;;5035637;28;20028;-48
2023/01/25 00:31:33;;;;;;;23.23;16.65;;;5.50;99.90;;;;;;5035075;28;20460;-47
2023/01/25 00:34:28;;;;;;;27.52;18.75;;;5.40;99.90;;;;;;5035685;28;20040;-47
2023/01/25 00:37:02;;;;;;;23.40;17.08;;;5.40;99.90;;;;;;5035350;28;20056;-47
2023/01/25 00:39:28;;;;;;;29.65;18.13;;;5.50;99.90;;;;;;5045219;28;20453;-48
2023/01/25 00:41:54;;;;;;;27.17;17.80;;;5.30;99.90;;;;;;5055399;28;20028;-47
2023/01/25 00:44:21;;;;;;;27.55;15.95;;;5.30;99.90;;;;;;5054752;28;20496;-47
2023/01/25 00:46:47;;;;;;;22.92;15.35;;;5.20;99.90;;;;;;5054847;28;20436;-47
2023/01/25 00:49:24;;;;;;;25.38;16.75;;;5.20;99.90;;;;;;5054813;28;20021;-48
2023/01/25 00:51:51;;;;;;;25.63;17.23;;;5.20;99.90;;;;;;5054732;28;20503;-47
2023/01/25 00:54:18;;;;;;;26.52;18.58;;;5.10;99.90;;;;;;5054815;28;20051;-47
2023/01/25 00:56:44;;;;;;;32.80;19.35;;;5.10;99.90;;;;;;5054598;28;20561;-47
2023/01/25 00:59:11;;;;;;;31.52;19.90;;;5.30;99.90;;;;;;5054697;28;20064;-47
2023/01/25 01:01:37;;;;;;;34.25;21.08;;;5.30;99.90;;;;;;5054381;28;20079;-47
2023/01/25 01:04:02;;;;;;;30.42;18.17;;;5.20;99.90;;;;;;5054827;28;20033;-48
2023/01/25 01:06:28;;;;;;;26.95;17.67;;;5.20;99.90;;;;;;5052395;28;20387;-47
2023/01/25 01:08:54;;;;;;;25.73;16.38;;;5.30;99.90;;;;;;5054488;28;20032;-47
2023/01/25 01:11:20;;;;;;;24.77;15.55;;;5.30;99.90;;;;;;5054284;28;20029;-47
2023/01/25 01:13:45;;;;;;;21.98;15.10;;;5.40;99.90;;;;;;5069093;28;20040;-47
2023/01/25 01:16:12;;;;;;;24.05;15.48;;;5.30;99.90;;;;;;5052439;28;20060;-48
2023/01/25 01:18:41;;;;;;;23.20;16.20;;;5.20;99.90;;;;;;5054121;28;20052;-47
2023/01/25 01:21:07;;;;;;;25.50;15.10;;;5.20;99.90;;;;;;5054370;28;20110;-47
2023/01/25 01:23:34;;;;;;;24.38;16.33;;;5.10;99.90;;;;;;5052307;28;20044;-47
2023/01/25 01:26:05;;;;;;;21.58;15.82;;;5.20;99.90;;;;;;5054210;28;20025;-47
2023/01/25 01:28:32;;;;;;;23.15;15.35;;;5.20;99.90;;;;;;5068267;28;20032;-47
2023/01/25 01:31:02;;;;;;;21.83;14.95;;;5.10;99.90;;;;;;5051964;28;20039;-47
2023/01/25 01:33:28;;;;;;;25.55;15.80;;;5.20;99.90;;;;;;5051512;28;20044;-48
2023/01/25 01:35:54;;;;;;;23.98;16.15;;;5.20;99.90;;;;;;5051870;28;20534;-47
2023/01/25 01:38:20;;;;;;;23.75;15.98;;;5.20;99.90;;;;;;5002277;28;20063;-47
2023/01/25 01:40:47;;;;;;;23.77;15.40;;;5.20;99.90;;;;;;5051685;28;20029;-47
2023/01/25 01:43:20;;;;;;;24.10;15.68;;;5.30;99.90;;;;;;5051746;28;20119;-47
2023/01/25 01:45:54;;;;;;;26.77;16.60;;;5.20;99.90;;;;;;5051478;28;20041;-48
2023/01/25 01:48:46;;;;;;;25.60;15.85;;;5.20;99.90;;;;;;5051897;28;20033;-47
2023/01/25 01:51:34;;;;;;;23.05;15.45;;;5.00;99.90;;;;;;5051679;28;20098;-47
2023/01/25 01:54:08;;;;;;;25.00;15.48;;;5.10;99.90;;;;;;5051540;28;20043;-47
2023/01/25 01:56:51;;;;;;;23.77;16.02;;;5.00;99.90;;;;;;5051277;28;20029;-47
2023/01/25 01:59:17;;;;;;;24.35;16.45;;;4.90;99.90;;;;;;5057075;28;20044;-48
2023/01/25 02:01:44;;;;;;;24.33;15.98;;;5.00;99.90;;;;;;5054842;28;20021;-48
2023/01/25 02:04:11;;;;;;;23.85;14.93;;;4.90;99.90;;;;;;5068252;28;20131;-47
2023/01/25 02:07:06;;;;;;;22.00;15.27;;;4.90;99.90;;;;;;5053602;28;20445;-47
2023/01/25 02:09:34;;;;;;;21.42;14.93;;;5.00;99.90;;;;;;5053189;28;20025;-47
2023/01/25 02:12:01;;;;;;;19.83;14.85;;;5.00;99.90;;;;;;5053521;28;20035;-47
2023/01/25 02:14:28;;;;;;;21.85;16.10;;;4.90;99.90;;;;;;5053518;28;20476;-48
2023/01/25 02:16:55;;;;;;;23.17;15.27;;;5.00;99.90;;;;;;5053202;28;20021;-47
2023/01/25 02:19:49;;;;;;;24.83;16.65;;;5.10;99.90;;;;;;5053336;28;20029;-47
2023/01/25 02:22:19;;;;;;;22.52;15.63;;;5.30;99.90;;;;;;5053383;28;20469;-54
2023/01/25 02:24:57;;;;;;;24.95;16.08;;;5.20;99.90;;;;;;5057533;28;20497;-47
2023/01/25 02:27:23;;;;;;;24.13;16.23;;;5.20;99.90;;;;;;5057993;28;20078;-48
2023/01/25 02:29:49;;;;;;;23.08;14.90;;;5.20;99.90;;;;;;5090766;28;20112;-47
2023/01/25 02:32:15;;;;;;;24.50;15.80;;;5.40;99.90;;;;;;5057872;28;20052;-49
2023/01/25 02:34:41;;;;;;;23.08;14.75;;;5.30;99.90;;;;;;5071191;28;20037;-48
2023/01/25 02:37:12;;;;;;;28.00;15.93;;;5.20;99.90;;;;;;5052999;28;20025;-47
2023/01/25 02:39:38;;;;;;;30.10;19.73;;;5.20;99.90;;;;;;5053128;28;20029;-48
2023/01/25 02:42:03;;;;;;;43.58;24.70;;;5.50;99.90;;;;;;5052936;28;20036;-47
2023/01/25 02:44:31;;;;;;;42.45;25.15;;;5.60;99.90;;;;;;5052670;28;20037;-47
2023/01/25 02:46:57;;;;;;;38.47;23.98;;;5.70;99.90;;;;;;5052813;28;20028;-47
2023/01/25 02:49:23;;;;;;;40.03;24.75;;;5.90;99.90;;;;;;5052965;28;20025;-47
2023/01/25 02:51:56;;;;;;;47.92;27.25;;;6.00;99.90;;;;;;5052873;28;20028;-47
2023/01/25 02:54:24;;;;;;;31.50;21.20;;;5.90;99.90;;;;;;5067779;28;20033;-47
2023/01/25 02:56:51;;;;;;;34.45;23.60;;;6.00;99.90;;;;;;5052738;28;20033;-47
2023/01/25 02:59:17;;;;;;;36.92;23.95;;;6.00;99.90;;;;;;5053079;28;20021;-47
2023/01/25 03:01:44;;;;;;;29.77;20.10;;;6.10;99.90;;;;;;5054337;28;20060;-48
2023/01/25 03:04:10;;;;;;;32.45;21.05;;;6.00;99.90;;;;;;5054679;28;20048;-47
2023/01/25 03:06:36;;;;;;;28.23;18.88;;;6.00;99.90;;;;;;5058270;28;20025;-47
2023/01/25 03:09:04;;;;;;;24.55;16.80;;;5.90;99.90;;;;;;5056828;28;20431;-47
2023/01/25 03:11:30;;;;;;;30.40;19.80;;;6.00;99.90;;;;;;5054812;28;20435;-47
2023/01/25 03:13:56;;;;;;;28.88;17.00;;;6.00;99.90;;;;;;5055193;28;20035;-47
2023/01/25 03:16:21;;;;;;;24.27;15.43;;;6.00;99.90;;;;;;5054771;28;20024;-47
2023/01/25 03:18:47;;;;;;;27.58;16.80;;;5.80;99.90;;;;;;5051943;28;20059;-48
2023/01/25 03:21:18;;;;;;;21.45;14.98;;;5.90;99.90;;;;;;5050669;28;20037;-47
2023/01/25 03:23:45;;;;;;;23.08;15.00;;;5.70;99.90;;;;;;5052402;28;20036;-48
2023/01/25 03:26:22;;;;;;;24.45;15.60;;;5.70;99.90;;;;;;5052473;28;20070;-48
2023/01/25 03:28:47;;;;;;;26.30;17.15;;;5.90;99.90;;;;;;5052768;28;20024;-47
2023/01/25 03:31:15;;;;;;;28.30;17.85;;;6.00;99.90;;;;;;5052366;28;20362;-47
2023/01/25 03:33:41;;;;;;;24.05;16.48;;;6.10;99.90;;;;;;5052139;28;20044;-48
2023/01/25 03:36:08;;;;;;;25.20;16.50;;;5.80;99.90;;;;;;5052329;28;20021;-47
2023/01/25 03:38:34;;;;;;;22.33;15.27;;;5.80;99.90;;;;;;5066948;28;20033;-47
2023/01/25 03:41:00;;;;;;;30.17;19.67;;;5.70;99.90;;;;;;5030232;28;20041;-47
2023/01/25 03:43:27;;;;;;;36.90;23.67;;;5.60;99.90;;;;;;5030287;28;20044;-48
2023/01/25 03:45:58;;;;;;;27.52;17.42;;;5.60;99.90;;;;;;5030372;28;20041;-47
2023/01/25 03:48:25;;;;;;;22.00;15.18;;;5.60;99.90;;;;;;5013762;28;20041;-47
2023/01/25 03:50:52;;;;;;;22.25;14.73;;;5.60;99.90;;;;;;5030254;28;20041;-47
2023/01/25 03:53:28;;;;;;;21.95;13.88;;;5.50;99.90;;;;;;5030150;28;20042;-47
2023/01/25 03:55:56;;;;;;;27.95;15.55;;;5.40;99.90;;;;;;5030353;28;20080;-47
2023/01/25 03:58:22;;;;;;;24.02;14.82;;;5.40;99.90;;;;;;5030340;28;20045;-47
2023/01/25 04:00:47;;;;;;;20.45;13.75;;;5.30;99.90;;;;;;5016652;28;20555;-48
2023/01/25 04:03:13;;;;;;;20.85;13.80;;;5.20;99.90;;;;;;5033403;28;20025;-47
2023/01/25 04:05:39;;;;;;;24.70;14.38;;;5.00;99.90;;;;;;4983584;28;20045;-47
2023/01/25 04:08:05;;;;;;;20.65;14.18;;;5.10;99.90;;;;;;4984076;28;20033;-48
2023/01/25 04:10:30;;;;;;;20.45;13.55;;;5.10;99.90;;;;;;5033563;28;20029;-48
2023/01/25 04:12:56;;;;;;;24.70;14.85;;;5.10;99.90;;;;;;5041160;28;20039;-47
2023/01/25 04:15:22;;;;;;;25.08;14.75;;;5.20;99.90;;;;;;5054145;28;20036;-48
2023/01/25 04:17:47;;;;;;;21.98;14.43;;;5.20;99.90;;;;;;5055030;28;20039;-47
2023/01/25 04:20:13;;;;;;;23.02;13.75;;;5.20;99.90;;;;;;5053588;28;20064;-47
2023/01/25 04:22:39;;;;;;;22.65;15.38;;;5.20;99.90;;;;;;5036706;28;20120;-47
2023/01/25 04:25:05;;;;;;;26.05;15.93;;;5.20;99.90;;;;;;5054695;28;20033;-48
2023/01/25 04:27:31;;;;;;;24.70;15.35;;;5.40;99.90;;;;;;5034154;28;20040;-47
2023/01/25 04:29:56;;;;;;;29.98;18.77;;;5.40;99.90;;;;;;5060778;28;20052;-47
2023/01/25 04:32:22;;;;;;;32.42;21.98;;;5.60;99.90;;;;;;5052159;28;20056;-47
2023/01/25 04:34:48;;;;;;;33.50;22.40;;;5.80;99.90;;;;;;5055673;28;20112;-48
2023/01/25 04:37:14;;;;;;;39.97;24.80;;;5.80;99.90;;;;;;5055253;28;20025;-47
2023/01/25 04:39:39;;;;;;;34.40;23.70;;;5.90;99.90;;;;;;5054904;28;20519;-48
2023/01/25 04:42:05;;;;;;;30.42;21.90;;;5.90;99.90;;;;;;5069866;28;20029;-48
2023/01/25 04:44:31;;;;;;;49.60;29.10;;;6.00;99.90;;;;;;5052079;28;20047;-48
2023/01/25 04:46:57;;;;;;;38.30;24.70;;;6.10;99.90;;;;;;5045469;28;20041;-48
2023/01/25 04:49:22;;;;;;;35.15;23.45;;;6.20;99.90;;;;;;5054816;28;20028;-47
2023/01/25 04:51:48;;;;;;;30.98;20.40;;;6.10;99.90;;;;;;5054831;28;20029;-47
2023/01/25 04:54:14;;;;;;;35.75;23.10;;;6.10;99.90;;;;;;5069867;28;20033;-47
2023/01/25 04:56:39;;;;;;;30.85;19.80;;;6.10;99.90;;;;;;5055039;28;20032;-47
2023/01/25 04:59:05;;;;;;;30.35;19.08;;;6.00;99.90;;;;;;5054765;28;20147;-47
2023/01/25 05:01:32;;;;;;;34.10;19.80;;;5.90;99.90;;;;;;5053028;28;20048;-49
2023/01/25 05:03:58;;;;;;;29.10;20.10;;;6.00;99.90;;;;;;5045908;28;20083;-48
2023/01/25 05:06:24;;;;;;;36.28;22.75;;;6.00;99.90;;;;;;5034962;28;20033;-47
2023/01/25 05:08:50;;;;;;;31.83;20.40;;;6.10;99.90;;;;;;5034695;28;20466;-47
2023/01/25 05:11:16;;;;;;;27.80;20.02;;;6.20;99.90;;;;;;5045396;28;20376;-47
2023/01/25 05:13:41;;;;;;;29.98;20.17;;;6.20;99.90;;;;;;5019212;28;20033;-45
2023/01/25 05:16:07;;;;;;;33.05;18.73;;;6.20;99.90;;;;;;5054707;28;20477;-47
2023/01/25 05:18:33;;;;;;;31.20;20.40;;;6.00;99.90;;;;;;5054153;28;20029;-47
2023/01/25 05:20:59;;;;;;;30.42;19.40;;;6.00;99.90;;;;;;5054484;28;20028;-47
2023/01/25 05:23:24;;;;;;;33.05;17.85;;;6.10;99.90;;;;;;5054334;28;20033;-47
2023/01/25 05:28:34;;;;;;;31.52;19.90;;;5.90;99.90;;;;;;5054354;28;20044;-47
2023/01/25 05:31:03;;;;;;;33.53;20.67;;;5.80;99.90;;;;;;5085953;28;20033;-47
2023/01/25 05:33:29;;;;;;;33.70;20.23;;;5.80;99.90;;;;;;5054013;28;20044;-47
2023/01/25 05:35:57;;;;;;;36.33;23.23;;;6.00;99.90;;;;;;5035621;28;20392;-47
2023/01/25 05:38:23;;;;;;;42.45;25.13;;;5.90;99.90;;;;;;5054178;28;20040;-47
2023/01/25 05:40:49;;;;;;;37.85;23.52;;;5.90;99.90;;;;;;5053653;28;20025;-47
2023/01/25 05:43:15;;;;;;;41.15;22.77;;;6.00;99.90;;;;;;5053990;28;20075;-46
2023/01/25 05:45:40;;;;;;;32.70;19.00;;;6.10;99.90;;;;;;5053836;28;20040;-46
2023/01/25 05:48:06;;;;;;;29.23;18.55;;;6.10;99.90;;;;;;5053910;28;20024;-47
2023/01/25 05:50:32;;;;;;;30.55;19.40;;;6.10;99.90;;;;;;5053724;28;20382;-47
2023/01/25 05:52:57;;;;;;;28.98;19.17;;;6.00;99.90;;;;;;5085320;28;20108;-46
2023/01/25 05:55:23;;;;;;;24.52;15.90;;;6.10;99.90;;;;;;5051984;28;20033;-47
2023/01/25 05:57:49;;;;;;;31.00;18.17;;;6.10;99.90;;;;;;5053832;28;20033;-47
2023/01/25 06:00:16;;;;;;;27.42;19.02;;;6.10;99.90;;;;;;5053827;28;20061;-47
2023/01/25 06:02:41;;;;;;;31.05;19.30;;;6.00;99.90;;;;;;5068161;28;20037;-48
2023/01/25 06:05:07;;;;;;;34.63;21.67;;;6.10;99.90;;;;;;5054028;28;20511;-47
2023/01/25 06:07:35;;;;;;;30.45;19.33;;;6.20;99.90;;;;;;5051775;28;20028;-47
2023/01/25 06:10:02;;;;;;;97.30;58.35;;;6.10;99.90;;;;;;5053397;28;20028;-47
2023/01/25 06:12:27;;;;;;;50.40;31.50;;;6.20;99.90;;;;;;5053728;28;20036;-48
2023/01/25 06:14:53;;;;;;;49.65;30.05;;;6.20;99.90;;;;;;5053377;28;20032;-48
2023/01/25 06:17:19;;;;;;;43.83;27.90;;;6.20;99.90;;;;;;5053634;28;20065;-47
2023/01/25 06:19:44;;;;;;;37.45;22.85;;;6.20;99.90;;;;;;5053219;28;20115;-47
2023/01/25 06:22:10;;;;;;;34.63;21.08;;;6.30;99.90;;;;;;5052417;28;20028;-47
2023/01/25 06:24:36;;;;;;;39.45;22.65;;;6.20;99.90;;;;;;5051607;28;20045;-47
2023/01/25 06:27:01;;;;;;;32.17;20.58;;;6.20;99.90;;;;;;5053731;28;20033;-46
2023/01/25 06:29:27;;;;;;;31.70;20.80;;;6.20;99.90;;;;;;5053060;28;20025;-48
2023/01/25 06:31:54;;;;;;;31.15;20.20;;;6.20;99.90;;;;;;5084600;28;20045;-46
2023/01/25 06:34:21;;;;;;;30.73;20.42;;;6.10;99.90;;;;;;5053163;28;20029;-47
2023/01/25 06:36:47;;;;;;;34.78;23.17;;;6.20;99.90;;;;;;5053187;28;20033;-47
2023/01/25 06:39:13;;;;;;;33.63;22.38;;;6.30;99.90;;;;;;5067767;28;20033;-47
2023/01/25 06:41:39;;;;;;;31.25;20.05;;;6.30;99.90;;;;;;5052950;28;20556;-46
2023/01/25 06:44:04;;;;;;;28.48;21.02;;;6.30;99.90;;;;;;5034404;28;20041;-47
2023/01/25 06:46:32;;;;;;;31.20;18.15;;;6.30;99.90;;;;;;5052960;28;20033;-47
2023/01/25 06:48:58;;;;;;;27.48;19.05;;;6.20;99.90;;;;;;5053291;28;20043;-47
2023/01/25 06:51:23;;;;;;;28.13;18.73;;;6.10;99.90;;;;;;5034199;28;20041;-47
2023/01/25 06:53:49;;;;;;;32.83;22.63;;;6.20;99.90;;;;;;5052895;28;20358;-47
2023/01/25 06:56:18;;;;;;;39.00;27.95;;;6.30;99.90;;;;;;5053054;28;20357;-48
2023/01/25 06:58:44;;;;;;;48.80;30.88;;;6.30;99.90;;;;;;5053536;28;20070;-47
2023/01/25 07:01:14;;;;;;;103.85;50.85;;;6.50;99.90;;;;;;5052993;28;20058;-47
2023/01/25 07:03:40;;;;;;;132.10;58.42;;;6.40;99.90;;;;;;5053046;28;20112;-47
2023/01/25 07:06:08;;;;;;;94.55;50.42;;;6.30;99.90;;;;;;5053001;28;20028;-48
2023/01/25 07:08:35;;;;;;;57.05;35.33;;;6.30;99.90;;;;;;5052748;28;20025;-46
2023/01/25 07:11:04;;;;;;;57.15;31.73;;;6.40;99.90;;;;;;5052847;28;20029;-46
2023/01/25 07:13:31;;;;;;;49.53;33.08;;;6.50;99.90;;;;;;5067625;28;20033;-47
2023/01/25 07:16:00;;;;;;;62.15;37.55;;;6.30;99.90;;;;;;5034327;28;20033;-48
2023/01/25 07:18:27;;;;;;;55.67;34.22;;;6.40;99.90;;;;;;5058011;28;20063;-47
2023/01/25 07:20:52;;;;;;;39.28;25.13;;;6.50;99.90;;;;;;5052699;28;20380;-47
2023/01/25 07:23:19;;;;;;;36.65;22.77;;;6.40;99.90;;;;;;5053039;28;20035;-47
2023/01/25 07:25:47;;;;;;;31.13;22.75;;;6.40;99.90;;;;;;5017481;28;20057;-47
2023/01/25 07:28:15;;;;;;;32.05;21.70;;;6.30;99.90;;;;;;5052603;28;20079;-47
2023/01/25 07:30:41;;;;;;;32.40;23.25;;;6.50;99.90;;;;;;5017665;28;20111;-46
2023/01/25 07:33:08;;;;;;;35.65;22.70;;;6.60;99.90;;;;;;5018229;28;20061;-46
2023/01/25 07:35:34;;;;;;;32.78;24.73;;;6.50;99.90;;;;;;5056696;28;20082;-46
2023/01/25 07:38:00;;;;;;;62.40;40.55;;;6.50;99.90;;;;;;5071381;28;20415;-47
2023/01/25 07:40:25;;;;;;;36.65;26.30;;;6.50;99.90;;;;;;5056256;28;20361;-47
2023/01/25 07:42:51;;;;;;;36.88;25.70;;;6.60;99.90;;;;;;5055981;28;20029;-46
2023/01/25 07:45:17;;;;;;;38.17;25.63;;;6.70;99.90;;;;;;5056200;28;20037;-47
2023/01/25 07:47:43;;;;;;;37.83;23.30;;;6.90;99.90;;;;;;5054384;28;20445;-47
2023/01/25 07:50:10;;;;;;;26.90;19.13;;;6.80;99.90;;;;;;5056434;28;20029;-46
2023/01/25 07:52:36;;;;;;;27.35;20.25;;;6.50;99.90;;;;;;5070645;28;20041;-47
2023/01/25 07:55:04;;;;;;;28.75;19.48;;;6.40;99.90;;;;;;5088595;28;20429;-46
2023/01/25 07:57:29;;;;;;;28.55;21.05;;;6.50;99.90;;;;;;5070550;28;20037;-47
2023/01/25 07:59:55;;;;;;;29.08;20.02;;;6.50;99.90;;;;;;5055870;28;20033;-46
2023/01/25 08:02:21;;;;;;;32.17;19.48;;;6.60;99.90;;;;;;5087163;28;20044;-47
2023/01/25 08:04:47;;;;;;;28.80;19.17;;;6.40;99.90;;;;;;5055041;28;20033;-47
2023/01/25 08:07:13;;;;;;;35.30;23.10;;;6.50;99.90;;;;;;5055715;28;20025;-47
2023/01/25 08:09:40;;;;;;;32.00;21.70;;;6.60;99.90;;;;;;5055637;28;20055;-46
2023/01/25 08:12:07;;;;;;;29.95;20.80;;;6.70;99.90;;;;;;5055893;28;20053;-47
2023/01/25 08:14:33;;;;;;;32.20;21.40;;;6.80;99.90;;;;;;5054931;28;20017;-47
2023/01/25 08:16:58;;;;;;;29.83;20.98;;;6.80;99.90;;;;;;5036216;28;20090;-47
2023/01/25 08:19:25;;;;;;;26.85;17.77;;;7.00;99.90;;;;;;5055688;28;20075;-47
2023/01/25 08:21:51;;;;;;;27.08;17.05;;;6.90;99.90;;;;;;5055725;28;20120;-47
2023/01/25 08:24:17;;;;;;;21.90;14.73;;;6.60;99.90;;;;;;5055520;28;20025;-48
2023/01/25 08:26:43;;;;;;;24.55;16.92;;;6.50;99.90;;;;;;5055486;28;20029;-46
2023/01/25 08:29:11;;;;;;;21.55;15.75;;;6.80;99.90;;;;;;5055388;28;20044;-47
2023/01/25 08:31:40;;;;;;;20.85;13.50;;;6.70;99.90;;;;;;5053171;28;20040;-46
2023/01/25 08:34:06;;;;;;;17.17;11.93;;;6.60;99.90;;;;;;5036957;28;20102;-46
2023/01/25 08:36:32;;;;;;;16.67;10.80;;;6.40;99.90;;;;;;5038345;28;20044;-48
2023/01/25 08:39:00;;;;;;;17.00;12.00;;;6.20;99.90;;;;;;5054157;28;20492;-48
2023/01/25 08:41:27;;;;;;;16.35;12.20;;;6.00;99.90;;;;;;5036913;28;20082;-47
2023/01/25 08:43:54;;;;;;;19.58;13.43;;;6.10;99.90;;;;;;5036482;28;20040;-47
2023/01/25 08:46:21;;;;;;;19.20;13.38;;;6.20;99.90;;;;;;5053101;28;20511;-47
2023/01/25 08:48:47;;;;;;;18.42;14.05;;;6.30;99.90;;;;;;5054769;28;20051;-46
2023/01/25 08:51:15;;;;;;;20.20;12.80;;;6.20;99.90;;;;;;5055084;28;20465;-47
2023/01/25 08:53:41;;;;;;;18.23;12.60;;;6.30;99.90;;;;;;5054908;28;20104;-47
2023/01/25 08:56:12;;;;;;;21.15;14.23;;;6.40;99.90;;;;;;5053810;28;20485;-46
2023/01/25 08:58:43;;;;;;;25.93;13.63;;;6.40;99.90;;;;;;5054777;28;20029;-47
2023/01/25 09:01:11;;;;;;;19.70;12.35;;;6.00;99.90;;;;;;5054835;28;20127;-46
2023/01/25 09:03:39;;;;;;;20.98;14.25;;;6.30;99.90;;;;;;5054575;28;20108;-47
2023/01/25 09:06:06;;;;;;;21.45;12.90;;;6.50;99.90;;;;;;5054205;28;20033;-47
2023/01/25 09:08:32;;;;;;;40.03;24.42;;;6.30;99.90;;;;;;5054637;28;20108;-47
2023/01/25 09:11:05;;;;;;;28.98;17.42;;;6.20;99.90;;;;;;5054913;28;20520;-47
2023/01/25 09:13:31;;;;;;;20.58;12.90;;;6.40;99.90;;;;;;5054804;28;20083;-47
2023/01/25 09:16:04;;;;;;;19.20;11.95;;;6.30;99.90;;;;;;5055014;28;20484;-47
2023/01/25 09:18:31;;;;;;;16.08;11.00;;;6.10;99.90;;;;;;5057624;28;20021;-47
2023/01/25 09:20:58;;;;;;;20.35;14.38;;;6.20;99.90;;;;;;5059220;28;20021;-48
2023/01/25 09:23:24;;;;;;;23.75;15.38;;;6.50;99.90;;;;;;5058008;28;20384;-47
2023/01/25 09:26:00;;;;;;;21.67;13.60;;;6.70;99.90;;;;;;5050499;28;20037;-48
2023/01/25 09:28:28;;;;;;;22.25;16.30;;;6.60;99.90;;;;;;5056082;28;20353;-47
2023/01/25 09:30:56;;;;;;;22.67;15.77;;;6.70;99.90;;;;;;5056814;28;20033;-47
2023/01/25 09:33:28;;;;;;;19.90;13.93;;;6.80;99.90;;;;;;5044665;28;20516;-46
2023/01/25 09:35:54;;;;;;;14.10;10.43;;;6.50;99.90;;;;;;5055764;28;20021;-47
2023/01/25 09:38:21;;;;;;;14.73;9.68;;;6.50;99.90;;;;;;5043813;28;20033;-47
2023/01/25 09:41:02;;;;;;;15.15;10.35;;;6.50;99.90;;;;;;5062691;28;20090;-47
2023/01/25 09:43:53;;;;;;;17.27;10.60;;;6.50;99.90;;;;;;5063779;28;20032;-48
2023/01/25 09:46:35;;;;;;;25.02;16.73;;;6.50;99.90;;;;;;5042633;28;20041;-47
2023/01/25 09:49:14;;;;;;;19.90;12.10;;;6.60;99.90;;;;;;5055528;28;20070;-47
2023/01/25 09:52:04;;;;;;;19.65;11.02;;;6.60;99.90;;;;;;5059744;28;20035;-47
2023/01/25 09:54:37;;;;;;;13.48;10.55;;;6.60;99.90;;;;;;5055473;28;20031;-47
2023/01/25 09:57:03;;;;;;;14.43;10.13;;;6.50;99.90;;;;;;5061902;28;20595;-47
2023/01/25 09:59:30;;;;;;;14.70;9.82;;;6.60;99.90;;;;;;5038108;28;20438;-47
2023/01/25 10:02:02;;;;;;;14.57;10.10;;;6.50;99.90;;;;;;5073782;28;20021;-47
2023/01/25 10:04:29;;;;;;;;;;;6.60;99.90;;;;;;5074239;28;20521;-48
2023/01/25 10:06:59;;;;;;;13.00;8.43;;;6.60;99.90;;;;;;5073952;28;19966;-47
2023/01/25 10:09:27;;;;;;;14.35;9.27;;;6.60;99.90;;;;;;5073965;28;20400;-47
2023/01/25 10:11:53;;;;;;;13.95;10.23;;;6.50;99.90;;;;;;5073712;28;20486;-47
2023/01/25 10:14:20;;;;;;;13.75;9.95;;;6.70;99.90;;;;;;5073342;28;20021;-46
2023/01/25 10:16:46;;;;;;;12.27;8.98;;;6.50;99.90;;;;;;5073619;28;20055;-47
2023/01/25 10:19:33;;;;;;;14.30;10.15;;;6.40;99.90;;;;;;5073955;28;20029;-47
2023/01/25 10:22:17;;;;;;;15.38;10.82;;;6.40;99.90;;;;;;5073566;28;20499;-47
2023/01/25 10:24:42;;;;;;;14.50;9.82;;;6.40;99.90;;;;;;5071437;28;20043;-47
2023/01/25 10:27:50;;;;;;;17.08;9.93;;;6.70;99.90;;;;;;5073344;28;20111;-47
2023/01/25 10:30:32;;;;;;;16.15;11.32;;;6.90;99.90;;;;;;5031074;28;20545;-47
2023/01/25 10:33:01;;;;;;;15.10;11.35;;;6.70;99.90;;;;;;5031005;28;20433;-47
2023/01/25 10:35:35;;;;;;;16.00;11.13;;;6.50;99.90;;;;;;4998111;28;20501;-49
2023/01/25 10:38:24;;;;;;;15.60;11.02;;;6.70;99.90;;;;;;5022520;28;20038;-46
2023/01/25 10:40:58;;;;;;;17.42;11.90;;;6.60;99.90;;;;;;5010372;28;20041;-47
2023/01/25 10:43:24;;;;;;;17.38;11.85;;;6.80;99.90;;;;;;5011114;28;20045;-47
2023/01/25 10:45:50;;;;;;;16.42;11.25;;;6.80;99.90;;;;;;5011230;28;20127;-46
2023/01/25 10:48:35;;;;;;;16.50;11.73;;;6.70;99.90;;;;;;5011311;28;20034;-46
2023/01/25 10:51:01;;;;;;;18.85;11.50;;;7.00;99.90;;;;;;5011191;28;20494;-47
2023/01/25 10:53:35;;;;;;;19.10;12.70;;;6.70;99.90;;;;;;4994819;28;20081;-47
2023/01/25 10:56:09;;;;;;;17.00;11.93;;;6.80;99.90;;;;;;5011326;28;20049;-47
2023/01/25 10:58:38;;;;;;;19.33;12.23;;;7.10;99.90;;;;;;5011188;28;20169;-47
2023/01/25 11:01:06;;;;;;;18.35;12.75;;;7.00;99.90;;;;;;5011310;28;20064;-47
2023/01/25 11:03:45;;;;;;;16.35;9.85;;;7.10;99.90;;;;;;5011380;28;20034;-47
2023/01/25 11:06:11;;;;;;;13.00;9.93;;;6.80;99.90;;;;;;5015141;28;20053;-47
2023/01/25 11:08:39;;;;;;;15.23;10.38;;;6.80;99.90;;;;;;5034288;28;20476;-47
2023/01/25 11:11:30;;;;;;;17.33;11.38;;;6.60;99.90;;;;;;5035354;28;20042;-47
2023/01/25 11:13:56;;;;;;;14.65;10.07;;;6.50;99.90;;;;;;5037413;28;20030;-47
2023/01/25 11:16:22;;;;;;;19.80;14.07;;;6.40;99.90;;;;;;5037171;28;20476;-48
2023/01/25 11:18:56;;;;;;;16.50;10.77;;;6.60;99.90;;;;;;5053110;28;20088;-48
2023/01/25 11:21:30;;;;;;;16.08;11.70;;;6.70;99.90;;;;;;5040673;28;20034;-54
2023/01/25 11:24:02;;;;;;;13.70;10.02;;;6.40;99.90;;;;;;5040676;28;20112;-49
2023/01/25 11:26:29;;;;;;;21.25;14.10;;;6.40;99.90;;;;;;5038581;28;20205;-48
2023/01/25 11:29:17;;;;;;;18.10;12.30;;;6.40;99.90;;;;;;5040087;28;20451;-47
2023/01/25 11:31:53;;;;;;;13.25;9.27;;;6.40;99.90;;;;;;5042273;28;20053;-47
2023/01/25 11:34:20;;;;;;;19.08;10.00;;;;;;;;;;5058811;28;20063;-47
2023/01/25 11:36:58;;;;;;;15.35;9.60;;;6.30;99.90;;;;;;5057158;28;20068;-47
2023/01/25 11:39:45;;;;;;;13.85;9.73;;;6.60;99.90;;;;;;5057121;28;20091;-47
2023/01/25 11:42:17;;;;;;;13.70;9.50;;;6.50;99.90;;;;;;5065062;28;20044;-46
2023/01/25 11:45:04;;;;;;;15.50;11.18;;;6.40;99.90;;;;;;5054474;28;20049;-47
2023/01/25 11:47:30;;;;;;;16.10;10.98;;;;;;;;;;5056847;28;20033;-50
2023/01/25 11:50:31;;;;;;;13.88;9.60;;;;;;;;;;5056561;28;20465;-47
2023/01/25 11:52:57;;;;;;;14.43;9.75;;;;;;;;;;5034358;28;20065;-47
2023/01/25 11:55:23;;;;;;;18.20;12.05;;;;;;;;;;5034059;28;20048;-46
2023/01/25 11:58:04;;;;;;;17.77;12.25;;;;;;;;;;5034213;28;20107;-47
2023/01/25 12:00:49;;;;;;;17.10;12.13;;;;;;;;;;5033909;28;20048;-47
2023/01/25 12:03:35;;;;;;;19.23;12.93;;;;;;;;;;5034137;28;20574;-47
2023/01/25 12:06:03;;;;;;;14.13;10.43;;;;;;;;;;5033797;28;20121;-46
2023/01/25 12:08:47;;;;;;;15.63;10.45;;;6.50;99.90;;;;;;5033816;28;20045;-47
2023/01/25 12:11:30;;;;;;;14.93;9.75;;;6.70;99.90;;;;;;5033770;28;20053;-47
2023/01/25 12:14:03;;;;;;;18.83;11.82;;;6.20;99.90;;;;;;5033595;28;20180;-47
2023/01/25 12:16:28;;;;;;;14.38;10.27;;;6.40;99.90;;;;;;5033683;28;20068;-47
2023/01/25 12:19:14;;;;;;;15.02;11.13;;;6.30;99.90;;;;;;5033616;28;20064;-47
2023/01/25 12:22:30;;;;;;;14.90;10.25;;;6.30;99.90;;;;;;5031706;28;20045;-48
2023/01/25 12:25:16;;;;;;;14.95;10.63;;;6.50;99.90;;;;;;4983641;28;20055;-47
2023/01/25 12:28:02;;;;;;;16.05;11.73;;;6.60;99.90;;;;;;4991352;28;20514;-47
2023/01/25 12:30:52;;;;;;;15.80;10.85;;;6.60;99.90;;;;;;4982887;28;20042;-47
2023/01/25 12:33:31;;;;;;;14.05;10.13;;;6.90;99.90;;;;;;4992554;28;20177;-48
2023/01/25 12:36:00;;;;;;;17.05;11.50;;;6.70;99.90;;;;;;4991428;28;20105;-47
2023/01/25 12:38:31;;;;;;;16.38;11.43;;;6.50;99.90;;;;;;4993316;28;20030;-47
2023/01/25 12:41:07;;;;;;;16.75;11.27;;;6.50;99.90;;;;;;4993204;28;20034;-47
2023/01/25 12:43:40;;;;;;;14.82;10.00;;;6.40;99.90;;;;;;4990544;28;20157;-47
2023/01/25 12:46:21;;;;;;;18.20;12.85;;;6.50;99.90;;;;;;4993696;28;20042;-47
2023/01/25 12:48:51;;;;;;;20.52;12.82;;;6.60;99.90;;;;;;4993351;28;20034;-47
2023/01/25 12:51:20;;;;;;;17.70;10.18;;;6.90;99.90;;;;;;4993663;28;20117;-47
2023/01/25 12:53:47;;;;;;;16.33;11.18;;;7.00;99.90;;;;;;4993425;28;20049;-46
2023/01/25 12:56:35;;;;;;;18.75;12.98;;;7.10;99.90;;;;;;4959683;28;20129;-47